Seneca, Missouri
Current Conditions -  °F | °C
As of 4:15 AM on Thursday 18 Dec 2014 (Local Time) from KGMJ Reporting Station
Haze Haze  
Wind Chill: 37°   Ceiling: 700
Heat Index: 37°   Visibility: 2mi
Dew Point: 37°   Wind: 0mph
Humidity: 100%   Direction: NA
Pressure: 30.17"   Gusts: NA
Location:  36.84°N, 94.61°W
Report Text: KGMJ 181015Z AUTO 00000KT 2SM BR SCT001 OVC007 03/03 A3017 RMK AO2
Loading
Personal Weather Stations






























Interactive Weather Map New forecast layout! Learn more

10-Day Weather Forecast

Advertisements
Track Severe Weather on mobile